createdAt,value
2022-10-12T03:00:46.712Z,5.87
2022-10-12T03:03:14.634Z,4.37
2022-10-12T03:05:42.483Z,4.23
2022-10-12T03:08:10.395Z,6.80
2022-10-12T03:10:38.394Z,6.97
2022-10-12T03:13:06.249Z,6.73
2022-10-12T03:15:34.122Z,6.87
2022-10-12T03:18:03.333Z,8.20
2022-10-12T03:20:31.245Z,8.50
2022-10-12T03:22:59.092Z,5.50
2022-10-12T03:25:26.985Z,5.87
2022-10-12T03:27:54.915Z,4.77
2022-10-12T03:30:22.816Z,7.63
2022-10-12T03:32:50.683Z,5.83
2022-10-12T03:35:20.002Z,5.87
2022-10-12T03:37:47.889Z,5.03
2022-10-12T03:40:15.871Z,6.23
2022-10-12T03:42:43.729Z,4.80
2022-10-12T03:45:12.569Z,3.70
2022-10-12T03:47:40.872Z,4.47
2022-10-12T03:50:09.756Z,6.93
2022-10-12T03:52:38.954Z,4.30
2022-10-12T03:55:07.844Z,8.17
2022-10-12T03:57:35.918Z,8.67
2022-10-12T04:00:04.501Z,4.70
2022-10-12T04:02:46.372Z,8.23
2022-10-12T04:05:14.272Z,5.80
2022-10-12T04:07:43.513Z,4.57
2022-10-12T04:10:11.371Z,6.33
2022-10-12T04:12:39.272Z,4.27
2022-10-12T04:15:10.343Z,4.73
2022-10-12T04:17:38.620Z,5.10
2022-10-12T04:20:07.855Z,3.57
2022-10-12T04:22:35.746Z,5.60
2022-10-12T04:25:07.316Z,9.20
2022-10-12T04:27:35.501Z,10.57
2022-10-12T04:30:03.684Z,11.13
2022-10-12T04:32:31.979Z,7.00
2022-10-12T04:35:00.091Z,7.33
2022-10-12T04:37:28.542Z,9.23
2022-10-12T04:39:56.498Z,8.67
2022-10-12T04:42:25.786Z,7.67
2022-10-12T04:44:53.643Z,5.00
2022-10-12T04:47:21.494Z,7.60
2022-10-12T04:49:49.330Z,5.10
2022-10-12T04:52:17.231Z,4.40
2022-10-12T04:54:45.114Z,7.73
2022-10-12T04:57:13.097Z,9.03
2022-10-12T04:59:42.343Z,8.70
2022-10-12T05:02:10.260Z,6.87
2022-10-12T05:04:38.184Z,7.13
2022-10-12T05:07:06.059Z,8.53
2022-10-12T05:09:33.958Z,7.87
2022-10-12T05:12:01.805Z,4.67
2022-10-12T05:14:33.588Z,5.70
2022-10-12T05:17:05.279Z,7.33
2022-10-12T05:19:33.390Z,4.10
2022-10-12T05:22:01.350Z,7.30
2022-10-12T05:24:29.308Z,6.00
2022-10-12T05:26:57.405Z,5.90
2022-10-12T05:29:25.314Z,7.70
2022-10-12T05:31:53.351Z,6.70
2022-10-12T05:34:22.576Z,3.83
2022-10-12T05:36:50.592Z,5.63
2022-10-12T05:39:19.547Z,8.87
2022-10-12T05:41:47.396Z,10.87
2022-10-12T05:44:15.257Z,12.23
2022-10-12T05:46:43.335Z,11.27
2022-10-12T05:49:11.214Z,5.47
2022-10-12T05:51:40.702Z,7.37
2022-10-12T05:54:08.646Z,9.23
2022-10-12T05:56:36.495Z,7.23
2022-10-12T05:59:04.595Z,6.23
2022-10-12T06:01:32.644Z,12.83
2022-10-12T06:04:00.560Z,10.37
2022-10-12T06:06:28.476Z,9.77
2022-10-12T06:08:57.869Z,9.23
2022-10-12T06:11:25.940Z,6.37
2022-10-12T06:13:54.250Z,7.83
2022-10-12T06:16:22.976Z,5.13
2022-10-12T06:18:50.913Z,5.33
2022-10-12T06:21:33.111Z,4.23
2022-10-12T06:24:03.341Z,5.67
2022-10-12T06:26:31.310Z,6.70
2022-10-12T06:29:00.587Z,5.33
2022-10-12T06:31:29.703Z,10.37
2022-10-12T06:33:57.681Z,7.73
2022-10-12T06:36:25.622Z,7.57
2022-10-12T06:38:55.167Z,8.83
2022-10-12T06:41:27.785Z,6.63
2022-10-12T06:43:55.839Z,9.90
2022-10-12T06:46:26.842Z,6.83
2022-10-12T06:48:55.972Z,6.30
2022-10-12T06:51:23.919Z,5.97
2022-10-12T06:53:51.792Z,5.43
2022-10-12T06:56:21.793Z,6.03
2022-10-12T06:58:55.160Z,5.70
2022-10-12T07:01:23.337Z,7.53
2022-10-12T07:03:51.340Z,9.80
2022-10-12T07:06:19.439Z,7.50
2022-10-12T07:08:50.244Z,7.80
2022-10-12T07:11:19.108Z,8.17
2022-10-12T07:13:47.004Z,6.73
2022-10-12T07:16:16.963Z,5.80
2022-10-12T07:18:44.866Z,5.93
2022-10-12T07:21:12.764Z,6.93
2022-10-12T07:23:45.723Z,6.80
2022-10-12T07:26:14.050Z,8.67
2022-10-12T07:28:43.097Z,7.40
2022-10-12T07:31:12.275Z,9.80
2022-10-12T07:33:42.593Z,11.70
2022-10-12T07:36:14.232Z,6.00
2022-10-12T07:38:45.447Z,5.83
2022-10-12T07:41:14.520Z,17.90
2022-10-12T07:43:43.115Z,10.97
2022-10-12T07:46:11.763Z,6.87
2022-10-12T07:48:45.610Z,6.30
2022-10-12T07:51:18.973Z,6.47
2022-10-12T07:53:46.946Z,6.20
2022-10-12T07:56:18.407Z,6.00
2022-10-12T07:58:49.985Z,7.47
2022-10-12T08:01:19.733Z,6.70
2022-10-12T08:03:47.921Z,5.10
2022-10-12T08:06:22.909Z,6.33
2022-10-12T08:08:51.256Z,7.17
2022-10-12T08:11:20.384Z,7.33
2022-10-12T08:13:48.445Z,8.67
2022-10-12T08:16:18.169Z,6.17
2022-10-12T08:18:46.342Z,6.03
2022-10-12T08:21:15.692Z,8.50
2022-10-12T08:23:46.594Z,6.40
2022-10-12T08:26:16.122Z,6.47
2022-10-12T08:28:44.415Z,7.00
2022-10-12T08:31:14.641Z,4.72
2022-10-12T08:33:42.559Z,8.07
2022-10-12T08:36:12.841Z,7.95
2022-10-12T08:38:43.181Z,7.60
2022-10-12T08:41:25.140Z,6.07
2022-10-12T08:44:06.210Z,4.93
2022-10-12T08:46:34.461Z,6.90
2022-10-12T08:49:06.967Z,9.73
2022-10-12T08:51:41.812Z,4.00
2022-10-12T08:54:14.413Z,8.50
2022-10-12T08:56:44.180Z,6.88
2022-10-12T08:59:14.851Z,7.63
2022-10-12T09:01:57.541Z,5.22
2022-10-12T09:04:47.267Z,6.63
2022-10-12T09:07:20.795Z,6.22
2022-10-12T09:10:02.409Z,5.43
2022-10-12T09:12:45.250Z,5.20
2022-10-12T09:15:17.513Z,6.22
2022-10-12T09:17:48.192Z,6.57
2022-10-12T09:20:21.060Z,4.55
2022-10-12T09:22:51.370Z,5.03
2022-10-12T09:25:23.623Z,7.38
2022-10-12T09:27:53.890Z,7.72
2022-10-12T09:30:22.448Z,3.25
2022-10-12T09:33:16.393Z,6.50
2022-10-12T09:35:46.001Z,6.05
2022-10-12T09:38:14.349Z,4.97
2022-10-12T09:40:42.332Z,5.85
2022-10-12T09:43:12.582Z,5.50
2022-10-12T09:45:40.917Z,5.38
2022-10-12T09:48:20.665Z,4.85
2022-10-12T09:50:54.966Z,9.23
2022-10-12T09:53:27.751Z,13.50
2022-10-12T09:56:03.403Z,11.68
2022-10-12T09:58:43.964Z,16.30
2022-10-12T10:01:19.321Z,11.73
2022-10-12T10:03:48.798Z,13.90
2022-10-12T10:06:23.118Z,10.68
2022-10-12T10:08:50.967Z,14.70
2022-10-12T10:11:23.727Z,15.40
2022-10-12T10:13:55.171Z,12.65
2022-10-12T10:16:25.943Z,11.95
2022-10-12T10:18:59.274Z,14.10
2022-10-12T10:21:30.083Z,12.02
2022-10-12T10:23:59.619Z,13.32
2022-10-12T10:26:29.298Z,11.15
2022-10-12T10:29:16.805Z,13.80
2022-10-12T10:31:47.950Z,12.05
2022-10-12T10:34:23.176Z,10.35
2022-10-12T10:36:53.513Z,14.73
2022-10-12T10:39:25.163Z,17.38
2022-10-12T10:41:53.311Z,11.02
2022-10-12T10:44:34.041Z,13.75
2022-10-12T10:47:04.248Z,9.32
2022-10-12T10:49:38.940Z,14.13
2022-10-12T10:52:08.657Z,13.43
2022-10-12T10:54:38.740Z,10.48
2022-10-12T10:57:11.820Z,10.20
2022-10-12T10:59:46.829Z,9.63
2022-10-12T11:02:30.698Z,11.57
2022-10-12T11:05:06.184Z,9.18
2022-10-12T11:07:40.621Z,10.90
2022-10-12T11:10:21.973Z,11.35
2022-10-12T11:12:54.268Z,10.18
2022-10-12T11:15:30.348Z,13.25
2022-10-12T11:18:07.927Z,9.65
2022-10-12T11:20:44.747Z,10.25
2022-10-12T11:23:20.641Z,8.50
2022-10-12T11:26:00.095Z,10.27
2022-10-12T11:28:31.765Z,8.15
2022-10-12T11:31:02.517Z,11.52
2022-10-12T11:33:38.280Z,11.55
2022-10-12T11:36:09.356Z,9.63
2022-10-12T11:38:43.842Z,10.10
2022-10-12T11:41:34.542Z,9.77
2022-10-12T11:44:07.700Z,10.50
2022-10-12T11:46:41.543Z,8.45
2022-10-12T11:49:15.207Z,12.18
2022-10-12T11:51:47.879Z,10.27
2022-10-12T11:54:25.524Z,8.20
2022-10-12T11:56:57.214Z,11.18
2022-10-12T11:59:31.412Z,10.52
2022-10-12T12:02:13.584Z,11.52
2022-10-12T12:04:45.292Z,6.57
2022-10-12T12:07:43.876Z,13.63
2022-10-12T12:11:00.663Z,12.73
2022-10-12T12:13:28.612Z,12.13
2022-10-12T12:16:30.793Z,11.63
2022-10-12T12:19:42.330Z,12.98
2022-10-12T12:22:19.144Z,9.02
2022-10-12T12:25:19.978Z,10.40
2022-10-12T12:27:51.906Z,9.98
2022-10-12T12:30:31.083Z,13.00
2022-10-12T12:33:01.945Z,13.02
2022-10-12T12:35:38.043Z,11.82
2022-10-12T12:38:19.693Z,8.20
2022-10-12T12:41:18.301Z,13.18
2022-10-12T12:44:04.711Z,16.38
2022-10-12T12:47:33.053Z,16.38
2022-10-12T12:50:00.239Z,10.73
2022-10-12T12:52:32.841Z,9.93
2022-10-12T12:55:41.389Z,12.43
2022-10-12T12:58:30.761Z,11.48
2022-10-12T13:01:24.851Z,11.95
2022-10-12T13:04:22.560Z,9.13
2022-10-12T13:07:29.405Z,12.18
2022-10-12T13:10:27.971Z,11.18
2022-10-12T13:13:24.949Z,12.63
2022-10-12T13:16:57.118Z,13.02
2022-10-12T13:19:12.883Z,11.35
2022-10-12T13:21:42.797Z,11.50
2022-10-12T13:24:17.239Z,12.10
2022-10-12T13:26:49.339Z,12.75
2022-10-12T13:29:22.675Z,8.82
2022-10-12T13:31:54.994Z,12.40
2022-10-12T13:34:26.256Z,7.60
2022-10-12T13:36:59.311Z,9.95
2022-10-12T13:39:29.104Z,9.82
2022-10-12T13:42:01.751Z,12.20
2022-10-12T13:44:34.417Z,11.25
2022-10-12T13:47:10.119Z,8.07
2022-10-12T13:49:43.615Z,10.68
2022-10-12T13:52:21.700Z,12.10
2022-10-12T13:54:50.816Z,9.43
2022-10-12T13:57:25.984Z,9.38
2022-10-12T13:59:57.632Z,9.68
2022-10-12T14:02:27.369Z,10.32
2022-10-12T14:04:56.234Z,13.18
2022-10-12T14:07:27.043Z,10.75
2022-10-12T14:09:58.536Z,11.30
2022-10-12T14:12:30.324Z,14.32
2022-10-12T14:14:59.261Z,12.30
2022-10-12T14:17:27.209Z,9.43
2022-10-12T14:19:56.262Z,9.85
2022-10-12T14:22:27.058Z,9.57
2022-10-12T14:25:10.899Z,8.32
2022-10-12T14:27:41.228Z,12.48
2022-10-12T14:30:19.035Z,10.30
2022-10-12T14:32:47.503Z,12.38
2022-10-12T14:35:27.831Z,14.05
2022-10-12T14:37:56.995Z,10.50
2022-10-12T14:40:32.929Z,11.10
2022-10-12T14:43:05.023Z,8.93
2022-10-12T14:45:34.041Z,10.05
2022-10-12T14:48:03.177Z,13.18
2022-10-12T14:50:33.253Z,12.27
2022-10-12T14:53:06.562Z,10.00
2022-10-12T14:55:35.330Z,11.48
2022-10-12T14:58:08.016Z,12.20
2022-10-12T15:00:37.607Z,11.77
2022-10-12T15:03:05.940Z,9.98
2022-10-12T15:05:34.732Z,13.43
2022-10-12T15:08:07.198Z,9.82
2022-10-12T15:10:35.839Z,9.63
2022-10-12T15:13:05.223Z,7.43
2022-10-12T15:15:37.447Z,10.35
2022-10-12T15:18:05.886Z,8.75
2022-10-12T15:20:34.681Z,10.48
2022-10-12T15:23:03.718Z,12.32
2022-10-12T15:25:40.658Z,9.57
2022-10-12T15:28:10.055Z,11.63
2022-10-12T15:30:47.442Z,14.60
2022-10-12T15:33:26.351Z,9.18
2022-10-12T15:35:54.283Z,13.30
2022-10-12T15:38:22.449Z,10.07
2022-10-12T15:40:51.736Z,9.00
2022-10-12T15:43:21.216Z,10.55
2022-10-12T15:45:49.697Z,9.20
2022-10-12T15:48:17.825Z,11.50
2022-10-12T15:50:48.039Z,10.68
2022-10-12T15:53:17.362Z,10.35
2022-10-12T15:55:45.286Z,11.80
2022-10-12T15:58:13.164Z,10.90
2022-10-12T16:00:43.703Z,16.48
2022-10-12T16:03:15.673Z,11.82
2022-10-12T16:05:43.873Z,10.43
2022-10-12T16:08:11.726Z,9.60
2022-10-12T16:10:41.257Z,10.73
2022-10-12T16:13:12.954Z,9.73
2022-10-12T16:15:42.218Z,9.75
2022-10-12T16:18:15.302Z,10.82
2022-10-12T16:20:45.864Z,18.97
2022-10-12T16:23:20.438Z,11.95
2022-10-12T16:25:49.418Z,11.73
2022-10-12T16:28:17.366Z,10.98
2022-10-12T16:30:45.285Z,12.27
2022-10-12T16:33:14.481Z,9.70
2022-10-12T16:35:42.993Z,12.65
2022-10-12T16:38:11.271Z,11.60
2022-10-12T16:40:40.062Z,9.25
2022-10-12T16:43:08.000Z,8.98
2022-10-12T16:45:35.911Z,10.85
2022-10-12T16:48:03.889Z,14.80
2022-10-12T16:50:33.281Z,10.63
2022-10-12T16:53:01.484Z,13.45
2022-10-12T16:55:29.403Z,12.77
2022-10-12T16:57:57.250Z,10.18
2022-10-12T17:00:25.235Z,12.48
2022-10-12T17:02:57.268Z,13.38
2022-10-12T17:05:25.614Z,17.27
2022-10-12T17:07:54.902Z,20.33
2022-10-12T17:10:22.794Z,18.98
2022-10-12T17:12:50.650Z,18.58
2022-10-12T17:15:18.669Z,18.95
2022-10-12T17:17:46.682Z,19.35
2022-10-12T17:20:14.661Z,16.38
2022-10-12T17:22:42.536Z,15.93
2022-10-12T17:25:11.877Z,14.70
2022-10-12T17:27:39.789Z,10.15
2022-10-12T17:30:09.184Z,11.95
2022-10-12T17:32:37.967Z,12.25
2022-10-12T17:35:06.451Z,13.13
2022-10-12T17:37:34.636Z,13.65
2022-10-12T17:40:05.391Z,14.15
2022-10-12T17:42:34.606Z,19.42
2022-10-12T17:45:02.442Z,14.38
2022-10-12T17:47:31.293Z,19.48
2022-10-12T17:49:59.183Z,19.15
2022-10-12T17:52:27.012Z,16.45
2022-10-12T17:54:54.858Z,14.68
2022-10-12T17:57:22.948Z,16.65
2022-10-12T17:59:52.142Z,14.80
2022-10-12T18:02:20.200Z,12.98
2022-10-12T18:04:48.046Z,15.50
2022-10-12T18:07:16.266Z,26.35
2022-10-12T18:09:44.493Z,17.40
2022-10-12T18:12:12.443Z,17.13
2022-10-12T18:14:40.728Z,20.02
2022-10-12T18:17:12.016Z,23.05
2022-10-12T18:19:39.861Z,24.80
2022-10-12T18:22:10.844Z,16.85
2022-10-12T18:24:40.200Z,21.15
2022-10-12T18:27:13.215Z,17.42
2022-10-12T18:29:41.303Z,14.27
2022-10-12T18:32:09.702Z,15.32
2022-10-12T18:34:41.026Z,14.07
2022-10-12T18:37:08.920Z,18.05
2022-10-12T18:39:40.045Z,15.82
2022-10-12T18:42:08.308Z,17.23
2022-10-12T18:44:37.403Z,16.20
2022-10-12T18:47:05.491Z,14.18
2022-10-12T18:49:33.371Z,13.98
2022-10-12T18:52:02.627Z,16.38
2022-10-12T18:54:30.489Z,15.38
2022-10-12T18:56:58.375Z,13.13
2022-10-12T18:59:26.294Z,19.05
2022-10-12T19:01:54.172Z,19.45
2022-10-12T19:04:22.258Z,16.33
2022-10-12T19:06:53.197Z,16.50
2022-10-12T19:09:24.894Z,14.55
2022-10-12T19:11:52.784Z,20.80
2022-10-12T19:14:20.834Z,19.55
2022-10-12T19:16:51.917Z,18.25
2022-10-12T19:19:21.870Z,16.38
2022-10-12T19:21:49.991Z,19.52
2022-10-12T19:24:18.221Z,19.08
2022-10-12T19:26:48.292Z,16.75
2022-10-12T19:29:16.301Z,16.30
2022-10-12T19:31:46.276Z,16.05
2022-10-12T19:34:15.729Z,19.48
2022-10-12T19:36:43.698Z,12.35
2022-10-12T19:39:14.854Z,13.90
2022-10-12T19:41:42.786Z,20.77
2022-10-12T19:44:13.006Z,11.80
2022-10-12T19:46:42.451Z,12.43
2022-10-12T19:49:13.963Z,12.43
2022-10-12T19:51:41.886Z,12.93
2022-10-12T19:54:11.999Z,12.63
2022-10-12T19:56:40.157Z,13.88
2022-10-12T19:59:08.340Z,13.23
2022-10-12T20:01:39.877Z,13.77
2022-10-12T20:04:09.866Z,12.80
2022-10-12T20:06:38.544Z,14.05
2022-10-12T20:09:08.237Z,12.80
2022-10-12T20:11:38.167Z,12.90
2022-10-12T20:14:06.611Z,12.38
2022-10-12T20:16:35.530Z,12.70
2022-10-12T20:19:06.448Z,14.80
2022-10-12T20:21:36.461Z,15.23
2022-10-12T20:24:04.947Z,16.05
2022-10-12T20:26:32.965Z,14.55
2022-10-12T20:29:01.804Z,14.75
2022-10-12T20:31:29.803Z,12.63
2022-10-12T20:34:01.497Z,14.30
2022-10-12T20:36:32.509Z,13.50
2022-10-12T20:39:00.986Z,13.40
2022-10-12T20:41:29.180Z,14.82
2022-10-12T20:43:57.288Z,12.38
2022-10-12T20:46:25.651Z,14.82
2022-10-12T20:48:58.620Z,13.50
2022-10-12T20:51:28.869Z,15.05
2022-10-12T20:54:00.696Z,16.70
2022-10-12T20:56:30.125Z,15.65
2022-10-12T20:58:58.367Z,11.93
2022-10-12T21:01:28.121Z,15.20
2022-10-12T21:03:56.392Z,10.05
2022-10-12T21:06:24.980Z,13.65
2022-10-12T21:08:54.710Z,12.38
2022-10-12T21:11:24.434Z,12.93
2022-10-12T21:13:52.449Z,13.88
2022-10-12T21:16:20.346Z,15.57
2022-10-12T21:18:48.642Z,13.98
2022-10-12T21:21:18.481Z,16.33
2022-10-12T21:23:54.291Z,14.18
2022-10-12T21:26:25.113Z,13.77
2022-10-12T21:28:53.575Z,16.08
